Time;durP1;ratioP1;P1;durP2;ratioP2;P2;SDS_P1;SDS_P2;PMS_P1;PMS_P2;Temp;Humidity;BMP_temperature;BMP_pressure;BME280_temperature;BME280_humidity;BME280_pressure;Samples;Min_cycle;Max_cycle;Signal;HPM_P1;HPM_P2
2022/08/11 00:00:43;;;;;;;4.38;2.70;;;;;;;20.37;40.16;100265.84;12212359;19;20010;-82
2022/08/11 00:04:45;;;;;;;5.05;3.13;;;;;;;20.33;40.16;100270.41;12210975;19;20117;-79
2022/08/11 00:08:50;;;;;;;4.15;2.90;;;;;;;20.30;40.44;100264.59;12192295;19;20007;-81
2022/08/11 00:12:55;;;;;;;6.43;3.15;;;;;;;20.26;40.48;100269.97;12209829;19;20094;-81
2022/08/11 00:17:04;;;;;;;4.60;3.22;;;;;;;20.26;40.61;100272.75;12210414;19;20049;-80
2022/08/11 00:21:07;;;;;;;5.78;3.05;;;;;;;20.26;40.30;100267.16;12191261;19;20046;-80
2022/08/11 00:25:14;;;;;;;4.10;2.90;;;;;;;20.28;40.47;100259.28;12207455;19;20376;-81
2022/08/11 00:29:16;;;;;;;5.70;3.58;;;;;;;20.26;40.44;100258.78;12186296;19;20025;-80
2022/08/11 00:33:22;;;;;;;4.88;3.13;;;;;;;20.22;40.54;100263.28;12207605;19;20385;-80
2022/08/11 00:37:49;;;;;;;7.30;3.40;;;;;;;20.14;40.86;100266.81;12212888;19;20483;-80
2022/08/11 00:42:09;;;;;;;4.07;2.97;;;;;;;20.13;40.38;100265.13;12184593;19;20010;-80
2022/08/11 00:46:36;;;;;;;6.45;3.08;;;;;;;20.10;40.97;100265.72;12208186;19;20002;-80
2022/08/11 00:50:44;;;;;;;5.18;3.13;;;;;;;20.07;40.50;100266.31;12181083;19;20007;-80
2022/08/11 00:55:02;;;;;;;6.03;3.15;;;;;;;20.06;41.15;100264.66;12207107;19;20003;-80
2022/08/11 00:59:19;;;;;;;6.97;2.90;;;;;;;20.05;40.87;100255.44;12211266;19;20026;-80
2022/08/11 01:03:39;;;;;;;5.80;3.17;;;;;;;20.02;40.67;100254.09;12183706;19;20081;-80
2022/08/11 01:08:12;;;;;;;5.50;3.38;;;;;;;20.04;40.66;100260.19;12210084;19;20027;-80
2022/08/11 01:12:25;;;;;;;3.17;2.65;;;;;;;20.03;40.64;100254.91;12186025;19;20023;-80
2022/08/11 01:16:46;;;;;;;5.05;3.20;;;;;;;20.01;40.96;100262.78;12207182;19;20072;-80
2022/08/11 01:21:24;;;;;;;6.63;3.47;;;;;;;19.96;41.12;100263.69;12185954;19;20007;-80
2022/08/11 01:26:00;;;;;;;7.15;2.90;;;;;;;20.01;40.93;100274.78;12206953;19;20633;-81
2022/08/11 01:30:18;;;;;;;6.15;3.30;;;;;;;20.05;40.36;100269.44;12184215;19;20485;-80
2022/08/11 01:34:26;;;;;;;4.28;3.20;;;;;;;20.02;40.91;100270.88;12206228;19;20011;-80
2022/08/11 01:38:52;;;;;;;4.05;2.70;;;;;;;20.01;40.89;100273.97;12187193;19;20074;-80
2022/08/11 01:48:05;;;;;;;6.00;2.70;;;;;;;19.93;41.04;100278.28;12186400;19;20097;-79
2022/08/11 01:52:18;;;;;;;4.25;2.95;;;;;;;19.90;41.28;100284.47;12207837;19;20865;-80
2022/08/11 01:56:34;;;;;;;5.30;2.78;;;;;;;19.89;41.23;100282.78;12185381;19;20079;-81
2022/08/11 02:00:51;;;;;;;6.18;3.40;;;;;;;19.90;41.16;100278.03;12205437;19;20014;-79
2022/08/11 02:05:01;;;;;;;6.28;3.22;;;;;;;19.88;41.14;100281.13;12206615;19;20074;-80
2022/08/11 02:09:36;;;;;;;5.32;2.95;;;;;;;19.83;41.13;100270.00;12184779;19;20614;-79
2022/08/11 02:14:00;;;;;;;3.88;2.72;;;;;;;19.80;41.34;100279.00;12205155;19;20518;-81
2022/08/11 02:18:23;;;;;;;4.95;3.00;;;;;;;19.75;41.55;100281.84;12182627;19;20523;-80
2022/08/11 02:27:24;;;;;;;6.38;3.05;;;;;;;19.63;41.97;100273.91;12179735;19;20009;-80
2022/08/11 02:36:31;;;;;;;7.32;3.67;;;;;;;19.47;42.17;100269.59;12177956;19;20038;-80
2022/08/11 02:40:49;;;;;;;4.20;3.15;;;;;;;19.46;42.57;100274.38;12203486;19;20528;-80
2022/08/11 02:45:12;;;;;;;5.22;3.05;;;;;;;19.46;41.83;100268.78;12179991;19;20046;-80
2022/08/11 02:54:14;;;;;;;4.00;2.80;;;;;;;19.44;42.16;100264.63;12181977;19;20038;-80
2022/08/11 02:58:29;;;;;;;3.38;2.72;;;;;;;19.39;42.54;100265.50;12203220;19;20006;-80
2022/08/11 03:02:47;;;;;;;10.43;3.58;;;;;;;19.31;42.75;100252.22;12182378;19;20018;-80
2022/08/11 03:07:05;;;;;;;5.70;3.58;;;;;;;19.29;42.56;100268.44;12206631;19;20027;-81
2022/08/11 03:16:54;;;;;;;8.27;3.30;;;;;;;19.13;43.52;100264.97;12214454;19;20022;-80
2022/08/11 03:21:08;;;;;;;5.82;2.97;;;;;;;19.06;43.49;100265.31;12187897;19;20028;-80
2022/08/11 03:25:30;;;;;;;3.88;3.20;;;;;;;19.00;43.84;100266.47;12209541;19;20275;-80
2022/08/11 03:29:42;;;;;;;6.72;2.85;;;;;;;18.93;44.02;100263.22;12191322;19;20098;-80
2022/08/11 03:34:02;;;;;;;6.70;3.30;;;;;;;18.89;43.90;100259.38;12213269;19;20011;-80
2022/08/11 03:38:14;;;;;;;7.68;2.85;;;;;;;18.81;44.32;100252.44;12215382;19;20024;-79
2022/08/11 03:42:41;;;;;;;8.40;2.70;;;;;;;18.76;44.61;100265.63;12191394;19;20089;-80
2022/08/11 03:47:05;;;;;;;4.70;3.30;;;;;;;18.73;44.76;100272.63;12212888;19;20094;-79
2022/08/11 03:51:13;;;;;;;7.57;3.25;;;;;;;18.66;44.55;100272.09;12198744;19;20046;-80
2022/08/11 03:55:46;;;;;;;4.78;3.33;;;;;;;18.62;44.78;100276.56;12240114;19;20051;-80
2022/08/11 04:00:28;;;;;;;5.82;3.40;;;;;;;18.59;44.68;100280.81;12193535;19;20421;-79
2022/08/11 04:04:34;;;;;;;6.25;3.30;;;;;;;18.60;44.76;100279.69;12211538;19;20085;-79
2022/08/11 04:08:54;;;;;;;5.75;3.13;;;;;;;18.55;44.83;100279.72;12190905;19;23516;-80
2022/08/11 04:13:18;;;;;;;5.82;3.15;;;;;;;18.50;45.73;100278.91;12212195;19;20538;-80
2022/08/11 04:17:38;;;;;;;;;;;;;;;18.43;45.85;100279.25;12190680;19;20378;-79
2022/08/11 04:21:50;;;;;;;5.43;2.70;;;;;;;18.42;45.62;100277.59;12212217;19;19917;-79
2022/08/11 04:26:21;;;;;;;7.82;3.35;;;;;;;18.40;45.88;100272.28;12209600;19;20026;-80
2022/08/11 04:30:52;;;;;;;5.18;2.78;;;;;;;18.38;45.83;100276.50;12192617;19;20102;-80
2022/08/11 04:35:06;;;;;;;6.18;3.08;;;;;;;18.35;45.96;100280.72;12210740;19;20013;-80
2022/08/11 04:39:48;;;;;;;5.03;3.20;;;;;;;18.35;46.35;100277.06;12192670;19;20021;-80
2022/08/11 04:44:24;;;;;;;4.28;3.38;;;;;;;18.36;46.33;100276.81;12209511;19;20010;-79
2022/08/11 05:03:21;;;;;;;6.93;3.78;;;;;;;18.36;46.80;100273.19;12187240;19;20090;-80
2022/08/11 05:07:48;;;;;;;6.03;3.30;;;;;;;18.37;46.55;100286.00;12208404;19;20011;-80
2022/08/11 05:12:14;;;;;;;6.35;4.03;;;;;;;18.36;47.11;100289.94;12186407;19;20006;-80
2022/08/11 05:34:53;;;;;;;7.43;4.10;;;;;;;18.51;46.90;100303.75;12203533;19;20015;-81
2022/08/11 05:57:37;;;;;;;7.28;4.10;;;;;;;19.11;46.58;100317.50;12170766;19;20036;-80
2022/08/11 06:01:58;;;;;;;8.93;4.60;;;;;;;19.27;46.29;100320.97;12182368;19;20006;-80
2022/08/11 06:06:07;;;;;;;10.70;4.18;;;;;;;19.42;46.32;100326.38;12185025;19;20014;-80
2022/08/11 06:10:10;;;;;;;7.07;4.07;;;;;;;19.58;45.92;100318.69;12205164;19;20038;-79
2022/08/11 06:14:14;;;;;;;6.85;4.15;;;;;;;19.68;45.89;100314.94;12209066;19;20116;-79
2022/08/11 06:18:17;;;;;;;6.20;4.28;;;;;;;19.83;45.75;100323.16;12190408;19;20014;-80
2022/08/11 06:22:20;;;;;;;6.60;4.20;;;;;;;20.00;45.44;100319.84;12210520;19;20081;-80
2022/08/11 06:26:22;;;;;;;6.20;3.50;;;;;;;20.20;45.05;100315.94;12185004;19;20050;-79
2022/08/11 06:30:38;;;;;;;7.63;4.20;;;;;;;20.42;44.71;100316.16;12205601;19;20082;-80
2022/08/11 06:34:58;;;;;;;8.90;3.58;;;;;;;20.70;44.14;100321.91;12206685;19;20018;-79
2022/08/11 06:39:41;;;;;;;7.78;4.00;;;;;;;20.89;43.68;100322.72;12187545;19;20003;-80
2022/08/11 06:43:50;;;;;;;7.50;3.30;;;;;;;21.10;43.72;100322.34;12216909;19;20113;-81
2022/08/11 06:47:59;;;;;;;5.35;3.45;;;;;;;21.35;43.26;100313.47;12198872;19;20429;-79
2022/08/11 06:52:07;;;;;;;6.15;3.60;;;;;;;21.59;43.01;100320.88;12217486;19;20006;-82
2022/08/11 07:01:16;;;;;;;10.05;3.47;;;;;;;22.10;41.80;100317.03;12216866;19;20034;-82
2022/08/11 07:05:29;;;;;;;5.93;3.78;;;;;;;22.35;41.08;100318.44;12200976;19;20010;-81
2022/08/11 07:32:02;;;;;;;8.43;3.22;;;;;;;23.99;38.79;100314.97;12226609;19;20053;-82
2022/08/11 07:36:04;;;;;;;9.50;3.45;;;;;;;24.27;38.51;100311.84;12239553;19;20002;-83
2022/08/11 07:40:06;;;;;;;6.70;3.40;;;;;;;24.47;38.63;100324.50;12220293;19;20027;-84
2022/08/11 07:44:10;;;;;;;5.88;3.55;;;;;;;24.71;37.56;100315.53;12219950;19;21318;-82
2022/08/11 07:52:36;;;;;;;;;;;;;;;25.03;37.03;100317.00;12216732;19;20069;-84
2022/08/11 07:56:39;;;;;;;4.90;3.30;;;;;;;25.30;37.18;100315.78;12190671;19;19918;-84
2022/08/11 08:18:35;;;;;;;4.88;3.33;;;;;;;26.39;34.95;100307.78;12195143;19;20027;-83
2022/08/11 08:22:37;;;;;;;6.88;3.25;;;;;;;26.54;34.83;100316.47;12215778;19;20114;-84
2022/08/11 08:26:58;;;;;;;6.53;3.63;;;;;;;26.62;34.61;100306.25;12190267;19;20010;-83
2022/08/11 08:31:00;;;;;;;4.70;3.22;;;;;;;26.81;34.54;100320.72;12214676;19;20010;-84
2022/08/11 08:35:03;;;;;;;10.65;4.32;;;;;;;27.00;34.41;100316.53;12206326;19;20073;-85
2022/08/11 08:39:05;;;;;;;5.80;3.40;;;;;;;27.21;33.84;100316.50;12195061;19;20070;-84
2022/08/11 08:43:13;;;;;;;7.70;4.93;;;;;;;27.36;33.83;100315.00;12209584;19;20029;-83
2022/08/11 08:47:17;;;;;;;7.68;3.58;;;;;;;27.59;33.13;100304.91;12215161;19;20006;-84
2022/08/11 08:51:46;;;;;;;4.45;3.22;;;;;;;27.70;32.42;100314.59;12194600;19;20010;-85
2022/08/11 08:56:09;;;;;;;6.38;3.53;;;;;;;27.97;32.35;100312.25;12214087;19;20010;-83
2022/08/11 09:04:44;;;;;;;6.70;3.30;;;;;;;28.25;31.58;100308.66;12210269;19;20013;-84
2022/08/11 09:08:46;;;;;;;6.18;3.33;;;;;;;28.43;31.79;100310.06;12188375;19;20373;-85
2022/08/11 09:12:53;;;;;;;4.60;3.58;;;;;;;28.56;31.22;100303.19;12207478;19;20094;-84
2022/08/11 09:16:55;;;;;;;4.00;2.97;;;;;;;28.77;30.97;100299.34;12209594;19;20006;-84
2022/08/11 09:20:57;;;;;;;4.60;3.13;;;;;;;29.02;30.40;100291.56;12187702;19;20014;-84
2022/08/11 09:29:21;;;;;;;4.95;3.17;;;;;;;29.53;28.78;100295.34;12187271;19;20017;-85
2022/08/11 09:33:24;;;;;;;5.25;3.05;;;;;;;29.41;28.56;100298.28;12213856;19;20022;-84
2022/08/11 09:42:00;;;;;;;3.90;2.80;;;;;;;29.69;28.52;100286.88;12197190;19;19922;-85
2022/08/11 09:46:05;;;;;;;3.80;2.50;;;;;;;29.85;27.97;100288.88;12205538;19;20418;-85
2022/08/11 09:50:13;;;;;;;4.55;2.47;;;;;;;30.09;27.16;100294.31;12209653;19;20010;-85
2022/08/11 09:54:16;;;;;;;3.25;2.50;;;;;;;30.30;26.66;100276.94;12187020;19;20111;-85
2022/08/11 09:58:21;;;;;;;5.32;2.40;;;;;;;30.46;26.16;100285.44;12214257;19;20472;-86
2022/08/11 10:02:46;;;;;;;6.43;2.80;;;;;;;30.56;25.72;100290.50;12189269;19;20105;-84
2022/08/11 10:07:01;;;;;;;6.82;3.20;;;;;;;30.66;25.85;100284.22;12208968;19;20072;-86
2022/08/11 10:11:08;;;;;;;5.10;2.55;;;;;;;30.84;25.79;100278.91;12208430;19;20011;-85
2022/08/11 10:15:33;;;;;;;5.57;2.97;;;;;;;31.05;25.21;100283.38;12185206;19;20015;-85
2022/08/11 10:19:36;;;;;;;3.65;2.97;;;;;;;30.91;25.11;100266.03;12223961;19;20003;-85
2022/08/11 10:28:08;;;;;;;2.85;2.55;;;;;;;31.01;24.13;100252.03;12216667;19;20105;-85
2022/08/11 10:37:21;;;;;;;4.20;2.80;;;;;;;31.29;24.15;100250.88;12221543;19;20011;-85
2022/08/11 10:59:17;;;;;;;5.07;3.28;;;;;;;31.80;23.67;100227.78;12220634;19;20014;-84
2022/08/11 11:03:34;;;;;;;;;;;;;;;31.91;23.42;100203.13;12194502;19;20429;-87
2022/08/11 11:07:47;;;;;;;6.53;3.38;;;;;;;32.38;23.33;100215.16;12217459;19;19938;-86
2022/08/11 11:20:46;;;;;;;7.38;3.83;;;;;;;32.17;22.93;100185.16;12268231;19;20386;-85
2022/08/11 11:25:07;;;;;;;4.70;3.95;;;;;;;32.16;23.46;100192.06;12232303;19;20017;-87
2022/08/11 11:29:54;;;;;;;6.70;3.70;;;;;;;32.42;23.11;100190.34;12221333;19;20391;-85
2022/08/11 11:34:16;;;;;;;6.65;3.70;;;;;;;32.38;23.36;100183.78;12122813;19;2004594;-86
2022/08/11 11:38:21;;;;;;;9.68;3.47;;;;;;;32.49;23.07;100184.75;12199684;19;20025;-86
2022/08/11 11:42:27;;;;;;;7.20;3.55;;;;;;;32.84;22.09;100177.78;12221519;19;20242;-86
2022/08/11 11:46:29;;;;;;;6.00;3.45;;;;;;;33.19;22.00;100171.59;12220964;19;20014;-85
2022/08/11 11:50:36;;;;;;;8.75;4.05;;;;;;;33.51;22.25;100153.94;12194378;19;20011;-88
2022/08/11 11:54:39;;;;;;;6.40;3.80;;;;;;;34.19;21.92;100140.84;12218493;19;20023;-87
2022/08/11 12:03:08;;;;;;;5.97;3.97;;;;;;;35.32;19.06;100147.22;12195087;19;20119;-85
2022/08/11 12:15:54;;;;;;;8.25;4.18;;;;;;;36.04;18.64;100127.84;12209828;19;20480;-80
2022/08/11 12:20:19;;;;;;;7.05;4.00;;;;;;;36.28;18.48;100117.47;12221980;19;20032;-83
2022/08/11 12:28:59;;;;;;;7.82;4.00;;;;;;;37.20;17.99;100125.91;12215751;19;20024;-82
2022/08/11 12:33:02;;;;;;;5.07;4.07;;;;;;;37.22;17.60;100111.13;12195462;19;20097;-84
2022/08/11 12:37:09;;;;;;;5.05;3.80;;;;;;;37.24;17.72;100103.69;12215071;19;20402;-83
2022/08/11 12:45:39;;;;;;;4.03;3.33;;;;;;;38.19;16.51;100080.03;12190822;19;20126;-84
2022/08/11 12:54:31;;;;;;;5.88;3.95;;;;;;;38.78;15.94;100077.94;12194456;19;20475;-83
2022/08/11 12:58:34;;;;;;;5.40;3.80;;;;;;;39.27;15.36;100081.25;12216287;19;20011;-82
2022/08/11 13:06:56;;;;;;;5.35;3.67;;;;;;;40.19;14.70;100083.56;12208191;19;20077;-84
2022/08/11 13:15:21;;;;;;;3.45;3.10;;;;;;;40.11;14.66;100059.78;12193530;19;20476;-82
2022/08/11 13:19:24;;;;;;;5.45;3.30;;;;;;;40.24;14.21;100060.75;12212209;19;20562;-82
2022/08/11 13:23:28;;;;;;;6.95;3.53;;;;;;;40.31;13.95;100069.25;12195294;19;20027;-84
2022/08/11 13:27:30;;;;;;;6.13;3.30;;;;;;;40.79;13.85;100061.13;12228889;19;20018;-82
2022/08/11 13:31:32;;;;;;;4.07;3.30;;;;;;;41.25;13.89;100055.41;12210734;19;20090;-82
2022/08/11 13:35:35;;;;;;;7.05;3.47;;;;;;;41.57;13.70;100043.75;12189285;19;21218;-84
2022/08/11 13:39:46;;;;;;;4.97;3.35;;;;;;;42.46;12.99;100027.88;12209428;19;20014;-83
2022/08/11 13:43:52;;;;;;;4.47;3.50;;;;;;;42.97;12.99;100019.91;12211588;19;20022;-84
2022/08/11 13:47:58;;;;;;;3.75;3.35;;;;;;;43.40;12.19;100024.19;12187354;19;20031;-84
2022/08/11 13:52:02;;;;;;;5.47;3.20;;;;;;;43.14;12.17;100016.88;12207661;19;20016;-83
2022/08/11 13:56:13;;;;;;;4.10;3.03;;;;;;;42.75;12.53;100010.34;12205792;19;20010;-83
2022/08/11 14:00:21;;;;;;;7.30;3.13;;;;;;;42.39;12.45;100013.59;12190512;19;20367;-84
2022/08/11 14:04:33;;;;;;;3.30;3.00;;;;;;;42.02;12.56;100002.34;12211013;19;20085;-82
2022/08/11 14:08:45;;;;;;;5.38;3.40;;;;;;;42.11;12.80;100002.44;12206402;19;20036;-83
2022/08/11 14:17:20;;;;;;;4.85;3.22;;;;;;;41.85;12.64;99981.31;12206687;19;20010;-83
2022/08/11 14:26:22;;;;;;;9.32;3.10;;;;;;;40.01;13.09;99988.69;12207740;19;20018;-82
2022/08/11 14:35:02;;;;;;;5.18;2.97;;;;;;;37.57;14.25;99974.84;12207058;19;20014;-82
2022/08/11 14:39:12;;;;;;;10.23;3.33;;;;;;;36.62;15.46;99976.25;12184541;19;20027;-82
2022/08/11 14:48:02;;;;;;;7.13;3.63;;;;;;;34.79;16.82;99961.94;12183551;19;20035;-82
2022/08/11 14:52:14;;;;;;;4.45;3.42;;;;;;;34.66;16.98;99969.31;12203421;19;20036;-82
2022/08/11 14:56:35;;;;;;;3.88;3.40;;;;;;;34.65;17.01;99957.03;12202294;19;20075;-81
2022/08/11 15:00:40;;;;;;;7.15;3.13;;;;;;;34.36;17.30;99952.53;12180856;19;20121;-82
2022/08/11 15:04:41;;;;;;;6.18;3.42;;;;;;;33.86;17.67;99938.97;12219343;19;20010;-82
2022/08/11 15:08:55;;;;;;;;;;;;;;;33.74;17.77;99945.06;12198787;19;20085;-81
2022/08/11 15:12:57;;;;;;;3.78;2.47;;;;;;;33.44;17.64;99954.75;12251160;19;19921;-82
2022/08/11 15:17:08;;;;;;;4.85;2.80;;;;;;;33.26;17.83;99943.22;12247795;19;20018;-84
2022/08/11 15:25:38;;;;;;;5.72;2.80;;;;;;;32.88;18.24;99945.44;12214832;19;20011;-84
2022/08/11 15:38:54;;;;;;;5.25;2.90;;;;;;;33.16;17.67;99931.75;12200894;19;20024;-83
2022/08/11 15:48:05;;;;;;;2.95;2.40;;;;;;;33.27;17.87;99924.06;12194750;19;20022;-83
2022/08/11 15:52:40;;;;;;;3.95;2.75;;;;;;;33.34;17.90;99921.22;12215956;19;20658;-83
2022/08/11 15:56:48;;;;;;;5.18;2.53;;;;;;;33.35;17.63;99906.56;12189325;19;20105;-83
2022/08/11 16:05:16;;;;;;;4.47;2.60;;;;;;;33.12;18.39;99912.56;12160409;19;20015;-84
2022/08/11 16:09:46;;;;;;;5.20;2.70;;;;;;;33.07;18.39;99904.38;12211153;19;20359;-83
2022/08/11 16:18:39;;;;;;;11.25;3.28;;;;;;;32.88;18.26;99893.25;12186454;19;20784;-83
2022/08/11 16:22:48;;;;;;;6.10;3.13;;;;;;;32.97;18.25;99896.56;12163754;19;20035;-83
2022/08/11 16:27:04;;;;;;;4.47;2.65;;;;;;;32.99;17.94;99894.16;12217952;19;20003;-84
2022/08/11 16:32:17;;;;;;;4.05;2.97;;;;;;;32.70;18.45;99887.44;12213721;19;20499;-83
2022/08/11 16:46:58;;;;;;;3.90;2.58;;;;;;;32.02;19.30;99877.53;12214207;19;20012;-84
2022/08/11 16:50:51;;;;;;;5.22;3.03;;;;;;;31.64;19.26;99871.84;12213867;19;21286;-84
2022/08/11 16:54:53;;;;;;;10.52;4.97;;;;;;;31.53;19.63;99882.31;12215427;19;20011;-84
2022/08/11 16:59:13;;;;;;;7.72;2.65;;;;;;;31.34;19.97;99871.91;12214649;19;20024;-84
2022/08/11 17:16:36;;;;;;;8.02;2.58;;;;;;;31.27;19.84;99869.00;12208744;19;20006;-83
2022/08/11 17:20:47;;;;;;;4.82;2.60;;;;;;;31.20;20.10;99868.88;12187410;19;20007;-84
2022/08/11 17:24:50;;;;;;;6.60;2.30;;;;;;;31.12;19.87;99864.34;12209762;19;20758;-83
2022/08/11 17:28:56;;;;;;;8.18;2.67;;;;;;;31.05;19.94;99860.16;12211190;19;20459;-84
2022/08/11 17:37:21;;;;;;;2.72;2.40;;;;;;;30.99;20.15;99866.59;12210333;19;20006;-85
2022/08/11 17:50:10;;;;;;;3.13;2.40;;;;;;;30.74;20.93;99863.41;12214892;19;20043;-84
